sensor_id;sensor_type;location;lat;lon;timestamp;pressure;altitude;pressure_sealevel;temperature;humidity
41636;BME280;27623;51.966;4.602;2024-01-06T00:02:14;64238.78;;;8.60;100.00
41636;BME280;27623;51.966;4.602;2024-01-06T00:04:40;64219.56;;;8.61;100.00
41636;BME280;27623;51.966;4.602;2024-01-06T00:07:05;64218.28;;;8.57;100.00
41636;BME280;27623;51.966;4.602;2024-01-06T00:09:30;64236.63;;;8.65;100.00
41636;BME280;27623;51.966;4.602;2024-01-06T00:11:56;64188.19;;;8.48;100.00
41636;BME280;27623;51.966;4.602;2024-01-06T00:14:21;64229.88;;;8.56;100.00
41636;BME280;27623;51.966;4.602;2024-01-06T00:16:47;64181.66;;;8.49;100.00
41636;BME280;27623;51.966;4.602;2024-01-06T00:19:12;64210.84;;;8.46;100.00
41636;BME280;27623;51.966;4.602;2024-01-06T00:21:38;64192.72;;;8.48;100.00
41636;BME280;27623;51.966;4.602;2024-01-06T00:24:04;64207.22;;;8.52;100.00
41636;BME280;27623;51.966;4.602;2024-01-06T00:26:29;64254.75;;;8.56;100.00
41636;BME280;27623;51.966;4.602;2024-01-06T00:28:54;64214.47;;;8.47;100.00
41636;BME280;27623;51.966;4.602;2024-01-06T00:31:20;64172.94;;;8.41;100.00
41636;BME280;27623;51.966;4.602;2024-01-06T00:33:45;64199.22;;;8.40;100.00
41636;BME280;27623;51.966;4.602;2024-01-06T00:36:11;64188.91;;;8.44;100.00
41636;BME280;27623;51.966;4.602;2024-01-06T00:38:37;64208.84;;;8.39;100.00
41636;BME280;27623;51.966;4.602;2024-01-06T00:41:02;64180.19;;;8.43;100.00
41636;BME280;27623;51.966;4.602;2024-01-06T00:43:27;64170.03;;;8.36;100.00
41636;BME280;27623;51.966;4.602;2024-01-06T00:45:53;64199.75;;;8.40;100.00
41636;BME280;27623;51.966;4.602;2024-01-06T00:48:20;64206.47;;;8.42;100.00
41636;BME280;27623;51.966;4.602;2024-01-06T00:50:46;64204.28;;;8.40;100.00
41636;BME280;27623;51.966;4.602;2024-01-06T00:53:12;64196.13;;;8.39;100.00
41636;BME280;27623;51.966;4.602;2024-01-06T00:55:37;64188.16;;;8.34;100.00
41636;BME280;27623;51.966;4.602;2024-01-06T00:58:03;64194.69;;;8.40;100.00
41636;BME280;27623;51.966;4.602;2024-01-06T01:00:28;64175.25;;;8.32;100.00
41636;BME280;27623;51.966;4.602;2024-01-06T01:02:54;64172.72;;;8.24;100.00
41636;BME280;27623;51.966;4.602;2024-01-06T01:05:19;64157.84;;;8.30;100.00
41636;BME280;27623;51.966;4.602;2024-01-06T01:07:44;64145.88;;;8.18;100.00
41636;BME280;27623;51.966;4.602;2024-01-06T01:10:10;64159.13;;;8.26;100.00
41636;BME280;27623;51.966;4.602;2024-01-06T01:12:35;64161.84;;;8.28;100.00
41636;BME280;27623;51.966;4.602;2024-01-06T01:15:01;64223.88;;;8.37;100.00
41636;BME280;27623;51.966;4.602;2024-01-06T01:17:29;64178.53;;;8.27;100.00
41636;BME280;27623;51.966;4.602;2024-01-06T01:19:54;64150.59;;;8.27;100.00
41636;BME280;27623;51.966;4.602;2024-01-06T01:22:20;64172.72;;;8.24;100.00
41636;BME280;27623;51.966;4.602;2024-01-06T01:24:45;64197.91;;;8.22;100.00
41636;BME280;27623;51.966;4.602;2024-01-06T01:27:11;64172.72;;;8.24;100.00
41636;BME280;27623;51.966;4.602;2024-01-06T01:29:36;64158.75;;;8.28;100.00
41636;BME280;27623;51.966;4.602;2024-01-06T01:32:02;64161.66;;;8.26;100.00
41636;BME280;27623;51.966;4.602;2024-01-06T01:34:27;64194.28;;;8.28;100.00
41636;BME280;27623;51.966;4.602;2024-01-06T01:36:52;64168.91;;;8.28;100.00
41636;BME280;27623;51.966;4.602;2024-01-06T01:39:20;64157.84;;;8.22;100.00
41636;BME280;27623;51.966;4.602;2024-01-06T01:41:46;64127.94;;;8.23;100.00
41636;BME280;27623;51.966;4.602;2024-01-06T01:44:11;64182.66;;;8.15;100.00
41636;BME280;27623;51.966;4.602;2024-01-06T01:46:37;64198.25;;;8.20;100.00
41636;BME280;27623;51.966;4.602;2024-01-06T01:49:04;64191.38;;;8.23;100.00
41636;BME280;27623;51.966;4.602;2024-01-06T01:51:32;64158.38;;;8.23;100.00
41636;BME280;27623;51.966;4.602;2024-01-06T01:54:00;64192.66;;;8.26;100.00
41636;BME280;27623;51.966;4.602;2024-01-06T01:56:26;64182.88;;;8.24;100.00
41636;BME280;27623;51.966;4.602;2024-01-06T01:58:54;64135.53;;;8.23;100.00
41636;BME280;27623;51.966;4.602;2024-01-06T02:01:20;64117.78;;;8.09;100.00
41636;BME280;27623;51.966;4.602;2024-01-06T02:03:45;64162.91;;;8.22;100.00
41636;BME280;27623;51.966;4.602;2024-01-06T02:06:11;64153.84;;;8.16;100.00
41636;BME280;27623;51.966;4.602;2024-01-06T02:08:37;64165.63;;;8.18;100.00
41636;BME280;27623;51.966;4.602;2024-01-06T02:11:03;64166.69;;;8.05;100.00
41636;BME280;27623;51.966;4.602;2024-01-06T02:13:35;64115.78;;;8.09;100.00
41636;BME280;27623;51.966;4.602;2024-01-06T02:16:04;64154.94;;;8.10;100.00
41636;BME280;27623;51.966;4.602;2024-01-06T02:18:35;64184.66;;;8.14;100.00
41636;BME280;27623;51.966;4.602;2024-01-06T02:21:02;64180.66;;;8.15;100.00
41636;BME280;27623;51.966;4.602;2024-01-06T02:23:28;64150.75;;;8.16;100.00
41636;BME280;27623;51.966;4.602;2024-01-06T02:25:54;64162.72;;;8.13;100.00
41636;BME280;27623;51.966;4.602;2024-01-06T02:28:22;64160.38;;;8.15;100.00
41636;BME280;27623;51.966;4.602;2024-01-06T02:30:48;64137.53;;;8.15;100.00
41636;BME280;27623;51.966;4.602;2024-01-06T02:33:13;64141.88;;;8.12;100.00
41636;BME280;27623;51.966;4.602;2024-01-06T02:35:39;64164.91;;;8.08;100.00
41636;BME280;27623;51.966;4.602;2024-01-06T02:38:05;64115.59;;;8.07;100.00
41636;BME280;27623;51.966;4.602;2024-01-06T02:40:31;64145.50;;;8.06;100.00
41636;BME280;27623;51.966;4.602;2024-01-06T02:42:58;64131.16;;;7.98;100.00
41636;BME280;27623;51.966;4.602;2024-01-06T02:45:23;64146.03;;;8.00;100.00
41636;BME280;27623;51.966;4.602;2024-01-06T02:47:51;64171.41;;;8.00;100.00
41636;BME280;27623;51.966;4.602;2024-01-06T02:50:19;64150.22;;;8.08;100.00
41636;BME280;27623;51.966;4.602;2024-01-06T02:52:44;64104.00;;;8.01;100.00
41636;BME280;27623;51.966;4.602;2024-01-06T02:55:13;64161.44;;;8.02;100.00
41636;BME280;27623;51.966;4.602;2024-01-06T02:57:38;64138.97;;;8.00;100.00
41636;BME280;27623;51.966;4.602;2024-01-06T03:00:04;64091.84;;;7.94;100.00
41636;BME280;27623;51.966;4.602;2024-01-06T03:02:29;64136.41;;;7.93;100.00
41636;BME280;27623;51.966;4.602;2024-01-06T03:04:55;64081.34;;;7.89;100.00
41636;BME280;27623;51.966;4.602;2024-01-06T03:07:21;64141.47;;;7.79;100.00
41636;BME280;27623;51.966;4.602;2024-01-06T03:09:47;64134.59;;;7.96;100.00
41636;BME280;27623;51.966;4.602;2024-01-06T03:12:14;64166.31;;;8.00;100.00
41636;BME280;27623;51.966;4.602;2024-01-06T03:14:40;64155.44;;;7.97;100.00
41636;BME280;27623;51.966;4.602;2024-01-06T03:17:05;64136.41;;;7.93;100.00
41636;BME280;27623;51.966;4.602;2024-01-06T03:19:30;64150.38;;;8.04;100.00
41636;BME280;27623;51.966;4.602;2024-01-06T03:21:56;64110.88;;;7.98;100.00
41636;BME280;27623;51.966;4.602;2024-01-06T03:24:23;64136.59;;;7.96;100.00
41636;BME280;27623;51.966;4.602;2024-01-06T03:26:48;64171.56;;;7.95;100.00
41636;BME280;27623;51.966;4.602;2024-01-06T03:29:14;64123.75;;;8.00;100.00
41636;BME280;27623;51.966;4.602;2024-01-06T03:31:44;64118.28;;;7.95;100.00
41636;BME280;27623;51.966;4.602;2024-01-06T03:34:09;64118.28;;;7.81;100.00
41636;BME280;27623;51.966;4.602;2024-01-06T03:36:36;64174.47;;;7.93;100.00
41636;BME280;27623;51.966;4.602;2024-01-06T03:39:02;64112.69;;;7.87;100.00
41636;BME280;27623;51.966;4.602;2024-01-06T03:41:27;64126.81;;;7.86;100.00
41636;BME280;27623;51.966;4.602;2024-01-06T03:43:53;64081.50;;;7.77;100.00
41636;BME280;27623;51.966;4.602;2024-01-06T03:46:18;64103.44;;;7.86;100.00
41636;BME280;27623;51.966;4.602;2024-01-06T03:48:43;64102.84;;;7.71;100.00
41636;BME280;27623;51.966;4.602;2024-01-06T03:51:10;64113.91;;;7.63;100.00
41636;BME280;27623;51.966;4.602;2024-01-06T03:53:35;64112.13;;;7.80;100.00
41636;BME280;27623;51.966;4.602;2024-01-06T03:56:02;64100.31;;;7.71;100.00
41636;BME280;27623;51.966;4.602;2024-01-06T03:58:28;64139.84;;;7.84;100.00
41636;BME280;27623;51.966;4.602;2024-01-06T04:00:53;64126.44;;;7.81;100.00
41636;BME280;27623;51.966;4.602;2024-01-06T04:03:21;64128.06;;;7.83;100.00
41636;BME280;27623;51.966;4.602;2024-01-06T04:05:46;64108.50;;;7.79;100.00
41636;BME280;27623;51.966;4.602;2024-01-06T04:08:11;64102.69;;;7.83;100.00
41636;BME280;27623;51.966;4.602;2024-01-06T04:10:37;64124.63;;;7.91;100.00
41636;BME280;27623;51.966;4.602;2024-01-06T04:13:02;64130.06;;;7.89;100.00
41636;BME280;27623;51.966;4.602;2024-01-06T04:15:27;64085.50;;;7.83;100.00
41636;BME280;27623;51.966;4.602;2024-01-06T04:17:54;64146.56;;;7.86;100.00
41636;BME280;27623;51.966;4.602;2024-01-06T04:20:19;64174.44;;;7.79;100.00
41636;BME280;27623;51.966;4.602;2024-01-06T04:22:45;64093.09;;;7.76;100.00
41636;BME280;27623;51.966;4.602;2024-01-06T04:25:10;64104.31;;;7.77;100.00
41636;BME280;27623;51.966;4.602;2024-01-06T04:27:35;64109.78;;;7.82;100.00
41636;BME280;27623;51.966;4.602;2024-01-06T04:30:01;64138.75;;;7.90;100.00
41636;BME280;27623;51.966;4.602;2024-01-06T04:32:27;64097.09;;;7.82;100.00
41636;BME280;27623;51.966;4.602;2024-01-06T04:34:52;64111.91;;;7.70;100.00
41636;BME280;27623;51.966;4.602;2024-01-06T04:37:17;64142.56;;;7.80;100.00
41636;BME280;27623;51.966;4.602;2024-01-06T04:39:43;64116.28;;;7.81;100.00
41636;BME280;27623;51.966;4.602;2024-01-06T04:42:08;64129.88;;;7.87;100.00
41636;BME280;27623;51.966;4.602;2024-01-06T04:44:36;64131.16;;;7.98;100.00
41636;BME280;27623;51.966;4.602;2024-01-06T04:47:01;64068.81;;;7.77;100.00
41636;BME280;27623;51.966;4.602;2024-01-06T04:49:27;64060.84;;;7.79;100.00
41636;BME280;27623;51.966;4.602;2024-01-06T04:51:52;64109.94;;;7.78;100.00
41636;BME280;27623;51.966;4.602;2024-01-06T04:54:20;64105.78;;;7.83;100.00
41636;BME280;27623;51.966;4.602;2024-01-06T04:56:45;64103.97;;;7.79;100.00
41636;BME280;27623;51.966;4.602;2024-01-06T04:59:11;64109.75;;;7.75;100.00
41636;BME280;27623;51.966;4.602;2024-01-06T05:01:36;64100.88;;;7.72;100.00
41636;BME280;27623;51.966;4.602;2024-01-06T05:04:01;64113.03;;;7.78;100.00
41636;BME280;27623;51.966;4.602;2024-01-06T05:06:27;64120.06;;;7.71;100.00
41636;BME280;27623;51.966;4.602;2024-01-06T05:08:52;64086.22;;;7.79;100.00
41636;BME280;27623;51.966;4.602;2024-01-06T05:11:17;64136.00;;;7.74;100.00
41636;BME280;27623;51.966;4.602;2024-01-06T05:13:43;64100.88;;;7.72;100.00
41636;BME280;27623;51.966;4.602;2024-01-06T05:16:08;64121.69;;;7.72;100.00
41636;BME280;27623;51.966;4.602;2024-01-06T05:18:34;64095.59;;;7.69;100.00
41636;BME280;27623;51.966;4.602;2024-01-06T05:21:00;64083.47;;;7.70;100.00
41636;BME280;27623;51.966;4.602;2024-01-06T05:23:25;64131.84;;;7.65;100.00
41636;BME280;27623;51.966;4.602;2024-01-06T05:25:53;64104.31;;;7.70;100.00
41636;BME280;27623;51.966;4.602;2024-01-06T05:28:18;64091.09;;;7.70;100.00
41636;BME280;27623;51.966;4.602;2024-01-06T05:30:44;64130.03;;;7.61;100.00
41636;BME280;27623;51.966;4.602;2024-01-06T05:33:10;64159.38;;;7.67;100.00
41636;BME280;27623;51.966;4.602;2024-01-06T05:35:38;64073.31;;;7.70;100.00
41636;BME280;27623;51.966;4.602;2024-01-06T05:38:03;64077.69;;;7.67;100.00
41636;BME280;27623;51.966;4.602;2024-01-06T05:40:29;64058.13;;;7.63;100.00
41636;BME280;27623;51.966;4.602;2024-01-06T05:42:54;64067.72;;;7.69;100.00
41636;BME280;27623;51.966;4.602;2024-01-06T05:45:21;64068.25;;;7.63;100.00
41636;BME280;27623;51.966;4.602;2024-01-06T05:47:46;64105.56;;;7.59;100.00
41636;BME280;27623;51.966;4.602;2024-01-06T05:50:15;64071.31;;;7.56;100.00
41636;BME280;27623;51.966;4.602;2024-01-06T05:52:40;64087.25;;;7.52;100.00
41636;BME280;27623;51.966;4.602;2024-01-06T05:55:06;64068.97;;;7.58;100.00
41636;BME280;27623;51.966;4.602;2024-01-06T05:57:32;64075.84;;;7.55;100.00
41636;BME280;27623;51.966;4.602;2024-01-06T05:59:59;64075.31;;;7.55;100.00
41636;BME280;27623;51.966;4.602;2024-01-06T06:02:25;64083.63;;;7.51;100.00
41636;BME280;27623;51.966;4.602;2024-01-06T06:04:51;64070.78;;;7.55;100.00
41636;BME280;27623;51.966;4.602;2024-01-06T06:07:19;64092.31;;;7.52;100.00
41636;BME280;27623;51.966;4.602;2024-01-06T06:09:45;64114.59;;;7.44;100.00
41636;BME280;27623;51.966;4.602;2024-01-06T06:12:13;64062.44;;;7.45;100.00
41636;BME280;27623;51.966;4.602;2024-01-06T06:14:38;64080.38;;;7.55;100.00
41636;BME280;27623;51.966;4.602;2024-01-06T06:17:04;64088.34;;;7.53;100.00
41636;BME280;27623;51.966;4.602;2024-01-06T06:19:31;64085.47;;;7.62;100.00
41636;BME280;27623;51.966;4.602;2024-01-06T06:21:57;64074.44;;;7.64;100.00
41636;BME280;27623;51.966;4.602;2024-01-06T06:24:25;64103.03;;;7.59;100.00
41636;BME280;27623;51.966;4.602;2024-01-06T06:26:51;64054.31;;;7.59;100.00
41636;BME280;27623;51.966;4.602;2024-01-06T06:29:16;64066.97;;;7.52;100.00
41636;BME280;27623;51.966;4.602;2024-01-06T06:31:41;64091.97;;;7.54;100.00
41636;BME280;27623;51.966;4.602;2024-01-06T06:34:09;64090.69;;;7.50;100.00
41636;BME280;27623;51.966;4.602;2024-01-06T06:36:36;64089.06;;;7.56;100.00
41636;BME280;27623;51.966;4.602;2024-01-06T06:39:01;64075.50;;;7.57;100.00
41636;BME280;27623;51.966;4.602;2024-01-06T06:41:26;64110.81;;;7.62;100.00
41636;BME280;27623;51.966;4.602;2024-01-06T06:43:52;64064.81;;;7.57;100.00
41636;BME280;27623;51.966;4.602;2024-01-06T06:46:17;64117.13;;;7.51;100.00
41636;BME280;27623;51.966;4.602;2024-01-06T06:48:43;64059.91;;;7.45;100.00
41636;BME280;27623;51.966;4.602;2024-01-06T06:51:08;64088.34;;;7.46;100.00
41636;BME280;27623;51.966;4.602;2024-01-06T06:53:33;64056.63;;;7.35;100.00
41636;BME280;27623;51.966;4.602;2024-01-06T06:55:59;64050.50;;;7.41;100.00
41636;BME280;27623;51.966;4.602;2024-01-06T06:58:24;64088.69;;;7.51;100.00
41636;BME280;27623;51.966;4.602;2024-01-06T07:00:49;64021.88;;;7.38;100.00
41636;BME280;27623;51.966;4.602;2024-01-06T07:03:15;64026.94;;;7.31;100.00
41636;BME280;27623;51.966;4.602;2024-01-06T07:05:41;64068.56;;;7.32;100.00
41636;BME280;27623;51.966;4.602;2024-01-06T07:08:06;64081.06;;;7.30;100.00
41636;BME280;27623;51.966;4.602;2024-01-06T07:10:32;64076.75;;;7.40;100.00
41636;BME280;27623;51.966;4.602;2024-01-06T07:12:59;64049.78;;;7.45;100.00
41636;BME280;27623;51.966;4.602;2024-01-06T07:15:24;64033.44;;;7.30;100.00
41636;BME280;27623;51.966;4.602;2024-01-06T07:17:50;64047.03;;;7.29;100.00
41636;BME280;27623;51.966;4.602;2024-01-06T07:20:15;64047.41;;;7.27;100.00
41636;BME280;27623;51.966;4.602;2024-01-06T07:22:40;64037.25;;;7.34;100.00
41636;BME280;27623;51.966;4.602;2024-01-06T07:25:06;64050.84;;;7.32;100.00
41636;BME280;27623;51.966;4.602;2024-01-06T07:27:32;64065.16;;;7.41;100.00
41636;BME280;27623;51.966;4.602;2024-01-06T07:29:58;64110.25;;;7.54;100.00
41636;BME280;27623;51.966;4.602;2024-01-06T07:32:25;64063.50;;;7.32;100.00
41636;BME280;27623;51.966;4.602;2024-01-06T07:34:53;64076.75;;;7.47;100.00
41636;BME280;27623;51.966;4.602;2024-01-06T07:37:18;64109.53;;;7.44;100.00
41636;BME280;27623;51.966;4.602;2024-01-06T07:39:44;64072.22;;;7.47;100.00
41636;BME280;27623;51.966;4.602;2024-01-06T07:42:12;64105.91;;;7.50;100.00
41636;BME280;27623;51.966;4.602;2024-01-06T07:44:37;64097.34;;;7.31;100.00
41636;BME280;27623;51.966;4.602;2024-01-06T07:47:02;64065.31;;;7.29;100.00
41636;BME280;27623;51.966;4.602;2024-01-06T07:49:32;64044.50;;;7.36;100.00
41636;BME280;27623;51.966;4.602;2024-01-06T07:51:58;64024.22;;;7.36;100.00
41636;BME280;27623;51.966;4.602;2024-01-06T07:54:23;64059.91;;;7.38;100.00
41636;BME280;27623;51.966;4.602;2024-01-06T07:56:48;64057.56;;;7.41;100.00
41636;BME280;27623;51.966;4.602;2024-01-06T07:59:14;64075.28;;;7.41;100.00
41636;BME280;27623;51.966;4.602;2024-01-06T08:01:39;64081.81;;;7.40;100.00
41636;BME280;27623;51.966;4.602;2024-01-06T08:04:06;64059.72;;;7.43;100.00
41636;BME280;27623;51.966;4.602;2024-01-06T08:06:31;64073.69;;;7.46;100.00
41636;BME280;27623;51.966;4.602;2024-01-06T08:08:57;64061.13;;;7.28;100.00
41636;BME280;27623;51.966;4.602;2024-01-06T08:11:22;64060.63;;;7.34;100.00
41636;BME280;27623;51.966;4.602;2024-01-06T08:13:47;64053.03;;;7.41;100.00
41636;BME280;27623;51.966;4.602;2024-01-06T08:16:13;64027.66;;;7.34;100.00
41636;BME280;27623;51.966;4.602;2024-01-06T08:18:38;64041.78;;;7.40;100.00
41636;BME280;27623;51.966;4.602;2024-01-06T08:21:04;64015.16;;;7.30;100.00
41636;BME280;27623;51.966;4.602;2024-01-06T08:23:29;64040.69;;;7.32;100.00
41636;BME280;27623;51.966;4.602;2024-01-06T08:25:54;64073.13;;;7.46;100.00
41636;BME280;27623;51.966;4.602;2024-01-06T08:28:20;64064.97;;;7.45;100.00
41636;BME280;27623;51.966;4.602;2024-01-06T08:30:48;64075.31;;;7.48;100.00
41636;BME280;27623;51.966;4.602;2024-01-06T08:33:14;64034.75;;;7.41;100.00
41636;BME280;27623;51.966;4.602;2024-01-06T08:35:39;64079.28;;;7.40;100.00
41636;BME280;27623;51.966;4.602;2024-01-06T08:38:08;64079.28;;;7.47;100.00
41636;BME280;27623;51.966;4.602;2024-01-06T08:40:34;64083.81;;;7.46;100.00
41636;BME280;27623;51.966;4.602;2024-01-06T08:43:00;64065.34;;;7.43;100.00
41636;BME280;27623;51.966;4.602;2024-01-06T08:45:25;64083.63;;;7.44;100.00
41636;BME280;27623;51.966;4.602;2024-01-06T08:47:51;64061.88;;;7.38;100.00
41636;BME280;27623;51.966;4.602;2024-01-06T08:50:16;64007.91;;;7.28;100.00
41636;BME280;27623;51.966;4.602;2024-01-06T08:52:42;64060.22;;;7.29;100.00
41636;BME280;27623;51.966;4.602;2024-01-06T08:55:07;64082.34;;;7.33;100.00
41636;BME280;27623;51.966;4.602;2024-01-06T08:57:33;64032.56;;;7.39;100.00
41636;BME280;27623;51.966;4.602;2024-01-06T08:59:58;64055.91;;;7.39;100.00
41636;BME280;27623;51.966;4.602;2024-01-06T09:02:27;64058.81;;;7.44;100.00
41636;BME280;27623;51.966;4.602;2024-01-06T09:04:52;64019.16;;;7.29;100.00
41636;BME280;27623;51.966;4.602;2024-01-06T09:07:17;64029.13;;;7.26;100.00
41636;BME280;27623;51.966;4.602;2024-01-06T09:09:44;64055.91;;;7.32;100.00
41636;BME280;27623;51.966;4.602;2024-01-06T09:12:09;64038.72;;;7.40;100.00
41636;BME280;27623;51.966;4.602;2024-01-06T09:14:34;64043.06;;;7.37;100.00
41636;BME280;27623;51.966;4.602;2024-01-06T09:17:00;64071.84;;;7.42;100.00
41636;BME280;27623;51.966;4.602;2024-01-06T09:19:25;64087.06;;;7.49;100.00
41636;BME280;27623;51.966;4.602;2024-01-06T09:21:53;64068.78;;;7.42;100.00
41636;BME280;27623;51.966;4.602;2024-01-06T09:24:19;64057.72;;;7.36;100.00
41636;BME280;27623;51.966;4.602;2024-01-06T09:26:47;64068.78;;;7.49;100.00
41636;BME280;27623;51.966;4.602;2024-01-06T09:29:12;64052.66;;;7.36;100.00
41636;BME280;27623;51.966;4.602;2024-01-06T09:31:38;64064.25;;;7.42;100.00
41636;BME280;27623;51.966;4.602;2024-01-06T09:34:03;64061.69;;;7.35;100.00
41636;BME280;27623;51.966;4.602;2024-01-06T09:36:30;64037.63;;;7.39;100.00
41636;BME280;27623;51.966;4.602;2024-01-06T09:38:56;64042.16;;;7.38;100.00
41636;BME280;27623;51.966;4.602;2024-01-06T09:41:21;64065.88;;;7.37;100.00
41636;BME280;27623;51.966;4.602;2024-01-06T09:43:47;64044.31;;;7.26;100.00
41636;BME280;27623;51.966;4.602;2024-01-06T09:46:26;64073.81;;;7.20;100.00
41636;BME280;27623;51.966;4.602;2024-01-06T09:48:53;64074.19;;;7.40;100.00
41636;BME280;27623;51.966;4.602;2024-01-06T09:51:20;64046.34;;;7.47;100.00
41636;BME280;27623;51.966;4.602;2024-01-06T09:53:55;64005.59;;;7.37;100.00
41636;BME280;27623;51.966;4.602;2024-01-06T09:56:24;64040.69;;;7.32;100.00
41636;BME280;27623;51.966;4.602;2024-01-06T09:58:50;64037.06;;;7.24;100.00
41636;BME280;27623;51.966;4.602;2024-01-06T10:01:17;64030.03;;;7.39;100.00
41636;BME280;27623;51.966;4.602;2024-01-06T10:03:43;64108.97;;;7.37;100.00
41636;BME280;27623;51.966;4.602;2024-01-06T10:06:10;64012.09;;;7.36;100.00
41636;BME280;27623;51.966;4.602;2024-01-06T10:08:36;64077.28;;;7.40;100.00
41636;BME280;27623;51.966;4.602;2024-01-06T10:11:01;64110.25;;;7.40;100.00
41636;BME280;27623;51.966;4.602;2024-01-06T10:13:27;64068.03;;;7.39;100.00
41636;BME280;27623;51.966;4.602;2024-01-06T10:15:54;64037.06;;;7.31;100.00
41636;BME280;27623;51.966;4.602;2024-01-06T10:18:20;64042.50;;;7.36;100.00
41636;BME280;27623;51.966;4.602;2024-01-06T10:20:46;64066.97;;;7.45;100.00
41636;BME280;27623;51.966;4.602;2024-01-06T10:23:11;64049.22;;;7.45;100.00
41636;BME280;27623;51.966;4.602;2024-01-06T10:25:38;64054.31;;;7.45;100.00
41636;BME280;27623;51.966;4.602;2024-01-06T10:28:11;64059.03;;;7.61;100.00
41636;BME280;27623;51.966;4.602;2024-01-06T10:30:38;64105.91;;;7.50;100.00
41636;BME280;27623;51.966;4.602;2024-01-06T10:33:08;64069.88;;;7.57;100.00
41636;BME280;27623;51.966;4.602;2024-01-06T10:35:34;64051.22;;;7.58;100.00
41636;BME280;27623;51.966;4.602;2024-01-06T10:38:01;64097.97;;;7.74;100.00
41636;BME280;27623;51.966;4.602;2024-01-06T10:40:27;64072.63;;;7.81;100.00
41636;BME280;27623;51.966;4.602;2024-01-06T10:42:52;64108.28;;;7.69;100.00
41636;BME280;27623;51.966;4.602;2024-01-06T10:45:18;64048.16;;;7.58;100.00
41636;BME280;27623;51.966;4.602;2024-01-06T10:47:43;64061.53;;;7.54;100.00
41636;BME280;27623;51.966;4.602;2024-01-06T10:50:09;64065.16;;;7.48;100.00
41636;BME280;27623;51.966;4.602;2024-01-06T10:52:39;64095.03;;;7.54;100.00
41636;BME280;27623;51.966;4.602;2024-01-06T10:55:05;64076.56;;;7.51;100.00
41636;BME280;27623;51.966;4.602;2024-01-06T10:57:31;64056.84;;;7.45;100.00
41636;BME280;27623;51.966;4.602;2024-01-06T10:59:58;64051.41;;;7.54;100.00
41636;BME280;27623;51.966;4.602;2024-01-06T11:02:24;64082.53;;;7.43;100.00
41636;BME280;27623;51.966;4.602;2024-01-06T11:04:51;64061.34;;;7.37;100.00
41636;BME280;27623;51.966;4.602;2024-01-06T11:07:18;64041.25;;;7.40;100.00
41636;BME280;27623;51.966;4.602;2024-01-06T11:09:57;64061.38;;;7.44;100.00
41636;BME280;27623;51.966;4.602;2024-01-06T11:12:23;64059.72;;;7.43;100.00
41636;BME280;27623;51.966;4.602;2024-01-06T11:14:51;64069.31;;;7.42;100.00
41636;BME280;27623;51.966;4.602;2024-01-06T11:17:55;64038.53;;;7.44;100.00
41636;BME280;27623;51.966;4.602;2024-01-06T11:20:23;64080.75;;;7.46;100.00
41636;BME280;27623;51.966;4.602;2024-01-06T11:22:49;64106.63;;;7.46;100.00
41636;BME280;27623;51.966;4.602;2024-01-06T11:25:17;64053.00;;;7.34;100.00
41636;BME280;27623;51.966;4.602;2024-01-06T11:27:44;64032.00;;;7.31;100.00
41636;BME280;27623;51.966;4.602;2024-01-06T11:30:20;64080.88;;;7.34;100.00
41636;BME280;27623;51.966;4.602;2024-01-06T11:32:45;64049.75;;;7.31;100.00
41636;BME280;27623;51.966;4.602;2024-01-06T11:35:15;64037.81;;;7.27;100.00
41636;BME280;27623;51.966;4.602;2024-01-06T11:42:48;64068.97;;;7.44;100.00
41636;BME280;27623;51.966;4.602;2024-01-06T11:45:14;64039.25;;;7.40;100.00
41636;BME280;27623;51.966;4.602;2024-01-06T11:47:40;64026.75;;;7.29;100.00
41636;BME280;27623;51.966;4.602;2024-01-06T11:50:10;64085.56;;;7.29;100.00
41636;BME280;27623;51.966;4.602;2024-01-06T11:52:36;64062.06;;;7.26;100.00
41636;BME280;27623;51.966;4.602;2024-01-06T11:55:01;64085.22;;;7.31;100.00
41636;BME280;27623;51.966;4.602;2024-01-06T11:57:28;64105.34;;;7.36;100.00
41636;BME280;27623;51.966;4.602;2024-01-06T11:59:53;64048.84;;;7.33;100.00
41636;BME280;27623;51.966;4.602;2024-01-06T12:02:19;64056.06;;;7.28;100.00
41636;BME280;27623;51.966;4.602;2024-01-06T12:04:52;64067.88;;;7.43;100.00
41636;BME280;27623;51.966;4.602;2024-01-06T12:07:19;64032.38;;;7.36;100.00
41636;BME280;27623;51.966;4.602;2024-01-06T12:09:48;64024.59;;;7.41;100.00
41636;BME280;27623;51.966;4.602;2024-01-06T12:12:18;64072.00;;;7.31;100.00
41636;BME280;27623;51.966;4.602;2024-01-06T12:14:44;64083.63;;;7.44;100.00
41636;BME280;27623;51.966;4.602;2024-01-06T12:17:11;64062.81;;;7.43;100.00
41636;BME280;27623;51.966;4.602;2024-01-06T12:19:38;64087.03;;;7.28;100.00
41636;BME280;27623;51.966;4.602;2024-01-06T12:22:06;64070.59;;;7.39;100.00
41636;BME280;27623;51.966;4.602;2024-01-06T12:24:32;64007.22;;;7.46;100.00
41636;BME280;27623;51.966;4.602;2024-01-06T12:26:58;64042.88;;;7.34;100.00
41636;BME280;27623;51.966;4.602;2024-01-06T12:29:27;64054.63;;;7.36;100.00
41636;BME280;27623;51.966;4.602;2024-01-06T12:31:59;64069.28;;;7.28;100.00
41636;BME280;27623;51.966;4.602;2024-01-06T12:34:24;64048.31;;;7.39;100.00
41636;BME280;27623;51.966;4.602;2024-01-06T12:36:52;64046.31;;;7.33;100.00
41636;BME280;27623;51.966;4.602;2024-01-06T12:39:18;64074.38;;;7.35;100.00
41636;BME280;27623;51.966;4.602;2024-01-06T12:41:44;64055.00;;;7.41;100.00
41636;BME280;27623;51.966;4.602;2024-01-06T12:44:12;64072.75;;;7.34;100.00
41636;BME280;27623;51.966;4.602;2024-01-06T12:46:38;64046.31;;;7.40;100.00
41636;BME280;27623;51.966;4.602;2024-01-06T12:49:04;63988.38;;;7.23;100.00
41636;BME280;27623;51.966;4.602;2024-01-06T12:51:29;64042.50;;;7.29;100.00
41636;BME280;27623;51.966;4.602;2024-01-06T12:53:55;64072.38;;;7.36;100.00
41636;BME280;27623;51.966;4.602;2024-01-06T12:56:20;64054.81;;;7.38;100.00
41636;BME280;27623;51.966;4.602;2024-01-06T12:58:48;64066.78;;;7.49;100.00
41636;BME280;27623;51.966;4.602;2024-01-06T13:01:13;64085.06;;;7.50;100.00